Time;durP1;ratioP1;P1;durP2;ratioP2;P2;SDS_P1;SDS_P2;PMS_P1;PMS_P2;Temp;Humidity;BMP_temperature;BMP_pressure;BME280_temperature;BME280_humidity;BME280_pressure;Samples;Min_cycle;Max_cycle;Signal;HPM_P1;HPM_P2
2022/11/07 00:01:50;;;;;;;9.07;2.80;;;;;;;11.01;100.00;100619.94;6098353;23;20022;-54
2022/11/07 00:04:18;;;;;;;6.18;2.70;;;;;;;11.00;100.00;100621.03;6098034;23;20023;-57
2022/11/07 00:06:45;;;;;;;7.03;2.70;;;;;;;11.01;100.00;100619.94;6098287;23;20018;-56
2022/11/07 00:09:13;;;;;;;7.90;2.50;;;;;;;11.08;100.00;100634.09;6097664;23;20018;-58
2022/11/07 00:11:40;;;;;;;8.82;2.65;;;;;;;11.09;100.00;100624.84;6097566;23;20018;-57
2022/11/07 00:14:09;;;;;;;7.28;2.47;;;;;;;11.13;100.00;100632.47;6072714;23;20026;-57
2022/11/07 00:16:37;;;;;;;8.63;2.80;;;;;;;11.08;100.00;100627.81;6098183;23;20026;-57
2022/11/07 00:19:04;;;;;;;8.80;2.97;;;;;;;11.14;100.00;100625.94;6097938;23;20026;-55
2022/11/07 00:21:33;;;;;;;8.80;3.17;;;;;;;11.09;100.00;100629.47;6098627;23;20029;-56
2022/11/07 00:24:00;;;;;;;6.53;2.67;;;;;;;11.03;100.00;100628.66;6098329;23;20014;-55
2022/11/07 00:26:28;;;;;;;4.68;2.35;;;;;;;11.08;100.00;100634.09;6072804;23;20023;-57
2022/11/07 00:28:55;;;;;;;10.65;3.13;;;;;;;11.02;100.00;100643.38;6097779;23;20090;-55
2022/11/07 00:31:23;;;;;;;6.82;2.90;;;;;;;11.14;100.00;100631.38;6097771;23;20447;-56
2022/11/07 00:33:51;;;;;;;8.02;3.10;;;;;;;11.13;100.00;100640.63;6098012;23;20014;-55
2022/11/07 00:36:26;;;;;;;6.88;2.70;;;;;;;11.21;100.00;100642.81;6095949;23;20027;-55
2022/11/07 00:38:55;;;;;;;5.82;2.60;;;;;;;11.14;100.00;100643.09;6096273;23;20065;-58
2022/11/07 00:41:23;;;;;;;9.30;3.05;;;;;;;11.15;100.00;100636.53;6097672;23;20021;-55
2022/11/07 00:43:51;;;;;;;4.75;2.50;;;;;;;11.16;100.00;100634.63;6098331;23;20436;-55
2022/11/07 00:46:19;;;;;;;6.60;2.83;;;;;;;11.16;100.00;100645.53;6097950;23;20066;-57
2022/11/07 00:48:47;;;;;;;5.07;2.60;;;;;;;11.08;100.00;100639.53;6098060;23;20053;-57
2022/11/07 00:51:17;;;;;;;4.38;2.20;;;;;;;11.13;100.00;100648.81;6096063;23;20023;-57
2022/11/07 00:53:46;;;;;;;7.35;2.97;;;;;;;11.11;100.00;100648.28;6098111;23;20045;-57
2022/11/07 00:56:17;;;;;;;7.30;2.53;;;;;;;11.15;100.00;100638.44;6096686;23;20022;-55
2022/11/07 00:58:45;;;;;;;5.38;2.40;;;;;;;11.05;100.00;100645.56;6098682;23;20019;-57
2022/11/07 01:01:19;;;;;;;9.23;3.20;;;;;;;11.04;100.00;100648.53;6097480;23;20022;-57
2022/11/07 01:06:36;;;;;;;5.40;2.63;;;;;;;10.99;100.00;100651.28;6096132;23;20077;-55
2022/11/07 01:09:06;;;;;;;6.90;2.80;;;;;;;10.99;100.00;100643.09;6097432;23;20332;-56
2022/11/07 01:11:36;;;;;;;6.28;2.67;;;;;;;11.02;100.00;100646.13;6097322;23;20053;-56
2022/11/07 01:14:04;;;;;;;10.70;3.05;;;;;;;11.01;100.00;100638.19;6097182;23;20023;-56
2022/11/07 01:16:34;;;;;;;7.03;2.58;;;;;;;11.09;100.00;100652.09;6095845;23;20404;-57
2022/11/07 01:19:02;;;;;;;7.40;2.78;;;;;;;11.11;100.00;100653.72;6098066;23;20485;-56
2022/11/07 01:21:30;;;;;;;6.60;2.40;;;;;;;11.03;100.00;100666.81;6096111;23;20030;-57
2022/11/07 01:23:59;;;;;;;6.63;3.05;;;;;;;10.98;100.00;100666.84;6096376;23;20025;-57
2022/11/07 01:26:26;;;;;;;6.72;2.50;;;;;;;10.96;100.00;100674.47;6097292;23;20025;-53
2022/11/07 01:28:54;;;;;;;6.70;3.00;;;;;;;11.02;100.00;100667.94;6097331;23;20023;-53
2022/11/07 01:31:21;;;;;;;7.28;2.42;;;;;;;10.96;100.00;100671.72;6097147;23;20018;-55
2022/11/07 01:33:49;;;;;;;13.55;3.33;;;;;;;11.00;100.00;100675.56;6096895;23;20395;-55
2022/11/07 01:36:17;;;;;;;10.63;2.72;;;;;;;10.92;100.00;100678.84;6097443;23;20443;-56
2022/11/07 01:38:49;;;;;;;7.15;2.80;;;;;;;11.03;100.00;100676.91;6096833;23;20022;-52
2022/11/07 01:41:20;;;;;;;9.30;2.80;;;;;;;11.00;100.00;100680.19;6097853;23;20048;-55
2022/11/07 01:44:23;;;;;;;6.22;2.70;;;;;;;11.03;100.00;100680.44;6096847;23;20097;-57
2022/11/07 01:46:53;;;;;;;8.52;2.95;;;;;;;10.98;100.00;100683.19;6064377;23;20023;-55
2022/11/07 01:49:24;;;;;;;7.93;2.75;;;;;;;10.92;100.00;100688.91;6097291;23;20320;-50
2022/11/07 01:52:03;;;;;;;9.25;2.80;;;;;;;10.89;100.00;100679.38;6072257;23;20026;-54
2022/11/07 01:54:34;;;;;;;10.30;3.10;;;;;;;10.87;100.00;100679.66;6097342;23;20018;-51
2022/11/07 01:57:06;;;;;;;6.47;2.70;;;;;;;10.86;100.00;100685.38;6097249;23;20023;-57
2022/11/07 01:59:34;;;;;;;7.38;2.50;;;;;;;10.85;100.00;100684.56;6095903;23;20069;-56
2022/11/07 02:02:03;;;;;;;8.20;2.70;;;;;;;10.94;100.00;100676.63;6095343;23;20022;-53
2022/11/07 02:04:31;;;;;;;5.68;2.70;;;;;;;10.96;100.00;100679.91;6095358;23;20019;-57
2022/11/07 02:07:20;;;;;;;9.07;2.63;;;;;;;10.98;100.00;100682.38;6095392;23;20025;-56
2022/11/07 02:09:52;;;;;;;8.00;2.63;;;;;;;10.93;100.00;100691.38;6096908;23;20026;-55
2022/11/07 02:12:21;;;;;;;6.70;2.40;;;;;;;10.86;100.00;100686.19;6096902;23;20077;-52
2022/11/07 02:14:49;;;;;;;7.90;3.20;;;;;;;10.90;100.00;100691.94;6095990;23;20018;-56
2022/11/07 02:17:17;;;;;;;9.05;2.83;;;;;;;10.95;100.00;100691.94;6095736;23;20090;-57
2022/11/07 02:19:48;;;;;;;8.10;2.65;;;;;;;10.94;100.00;100692.19;6097480;23;20041;-56
2022/11/07 02:22:37;;;;;;;6.78;2.60;;;;;;;10.97;100.00;100686.22;6072605;23;20026;-55
2022/11/07 02:25:11;;;;;;;5.88;2.15;;;;;;;11.03;100.00;100696.81;6097661;23;20026;-59
2022/11/07 02:27:39;;;;;;;10.15;2.92;;;;;;;11.07;100.00;100695.19;6095881;23;20023;-57
2022/11/07 02:30:10;;;;;;;7.72;2.83;;;;;;;11.09;100.00;100690.28;6095013;23;20081;-58
2022/11/07 02:32:38;;;;;;;10.50;3.22;;;;;;;11.07;100.00;100683.47;6096678;23;20132;-57
2022/11/07 02:35:25;;;;;;;8.73;2.85;;;;;;;11.03;100.00;100685.91;6097201;23;20018;-59
2022/11/07 02:37:54;;;;;;;11.43;2.63;;;;;;;11.03;100.00;100693.28;6097133;23;20034;-57
2022/11/07 02:40:21;;;;;;;10.13;2.95;;;;;;;10.99;100.00;100690.28;6095504;23;20023;-59
2022/11/07 02:42:49;;;;;;;8.43;2.90;;;;;;;11.02;100.00;100700.63;6095702;23;20025;-56
2022/11/07 02:45:33;;;;;;;11.45;3.08;;;;;;;11.01;100.00;100693.53;6095255;23;20077;-58
2022/11/07 02:48:01;;;;;;;7.75;2.63;;;;;;;11.04;100.00;100694.91;6070667;23;20018;-57
2022/11/07 02:50:29;;;;;;;8.10;2.50;;;;;;;11.09;100.00;100687.53;6095679;23;20026;-55
2022/11/07 02:52:57;;;;;;;8.32;2.63;;;;;;;11.07;100.00;100687.00;6095852;23;20026;-57
2022/11/07 02:55:24;;;;;;;8.68;2.72;;;;;;;11.04;100.00;100684.84;6071546;23;20511;-56
2022/11/07 02:57:52;;;;;;;7.97;2.70;;;;;;;11.01;100.00;100682.63;6094437;23;20027;-56
2022/11/07 03:00:20;;;;;;;9.70;3.17;;;;;;;10.97;100.00;100676.13;6097339;23;20018;-53
2022/11/07 03:02:47;;;;;;;11.45;2.85;;;;;;;10.98;100.00;100679.66;6096660;23;20018;-57
2022/11/07 03:05:17;;;;;;;9.55;2.95;;;;;;;11.01;100.00;100670.91;6095313;23;20093;-56
2022/11/07 03:07:46;;;;;;;7.03;2.22;;;;;;;11.01;100.00;100669.00;6094593;23;20026;-57
2022/11/07 03:10:15;;;;;;;7.22;2.53;;;;;;;11.01;100.00;100660.81;6094573;23;20022;-56
2022/11/07 03:12:42;;;;;;;7.53;2.53;;;;;;;11.03;100.00;100658.63;6095281;23;20070;-57
2022/11/07 03:15:11;;;;;;;11.38;2.90;;;;;;;11.05;100.00;100678.28;6097041;23;20019;-56
2022/11/07 03:17:39;;;;;;;7.03;2.58;;;;;;;10.98;100.00;100685.91;6094910;23;20026;-56
2022/11/07 03:20:08;;;;;;;8.80;2.72;;;;;;;11.03;100.00;100679.63;6095122;23;20351;-56
2022/11/07 03:22:35;;;;;;;11.32;3.00;;;;;;;11.01;100.00;100677.19;6096382;23;20478;-56
2022/11/07 03:25:03;;;;;;;10.07;3.20;;;;;;;11.06;100.00;100679.94;6096544;23;20440;-57
2022/11/07 03:27:31;;;;;;;11.77;2.90;;;;;;;11.08;100.00;100677.72;6096782;23;20049;-56
2022/11/07 03:29:59;;;;;;;6.18;2.58;;;;;;;11.16;100.00;100680.97;6095481;23;20077;-55
2022/11/07 03:32:26;;;;;;;10.13;3.25;;;;;;;11.06;100.00;100692.72;6097199;23;20054;-58
2022/11/07 03:34:54;;;;;;;10.15;2.72;;;;;;;11.01;100.00;100684.53;6096959;23;20026;-56
2022/11/07 03:37:21;;;;;;;10.25;3.15;;;;;;;10.98;100.00;100694.09;6096609;23;20033;-57
2022/11/07 03:39:49;;;;;;;9.15;2.95;;;;;;;10.93;100.00;100687.84;6095601;23;20022;-61
2022/11/07 03:42:17;;;;;;;13.45;3.17;;;;;;;10.90;100.00;100693.84;6096974;23;20015;-57
2022/11/07 03:44:44;;;;;;;10.55;3.00;;;;;;;10.90;100.00;100686.47;6095203;23;20046;-55
2022/11/07 03:47:12;;;;;;;10.65;2.72;;;;;;;10.87;100.00;100689.72;6096765;23;20014;-55
2022/11/07 03:49:40;;;;;;;12.32;3.63;;;;;;;10.83;100.00;100707.75;6095962;23;20070;-57
2022/11/07 03:52:08;;;;;;;10.27;2.50;;;;;;;10.84;100.00;100703.91;6096077;23;20028;-53
2022/11/07 03:54:36;;;;;;;9.95;3.22;;;;;;;10.87;100.00;100703.34;6094024;23;20026;-57
2022/11/07 03:57:04;;;;;;;11.32;2.90;;;;;;;10.92;100.00;100706.09;6096828;23;20030;-57
2022/11/07 03:59:31;;;;;;;8.05;2.65;;;;;;;10.93;100.00;100699.56;6097103;23;20054;-56
2022/11/07 04:01:59;;;;;;;9.45;3.20;;;;;;;10.92;100.00;100703.38;6096161;23;20022;-53
2022/11/07 04:04:27;;;;;;;9.52;3.08;;;;;;;11.04;100.00;100692.16;6096868;23;20406;-57
2022/11/07 04:06:54;;;;;;;10.13;3.17;;;;;;;11.01;100.00;100698.19;6096971;23;20026;-56
2022/11/07 04:09:22;;;;;;;11.38;2.75;;;;;;;11.00;100.00;100693.84;6095926;23;20022;-56
2022/11/07 04:17:22;;;;;;;;;;;;;;;11.09;100.00;100693.00;6098263;23;20503;-57
2022/11/07 04:19:53;;;;;;;8.05;2.75;;;;;;;11.14;100.00;100694.09;6095969;23;19916;-56
2022/11/07 04:22:25;;;;;;;10.05;3.45;;;;;;;11.12;100.00;100693.56;6097891;23;20033;-54
2022/11/07 04:24:52;;;;;;;9.27;3.20;;;;;;;11.05;100.00;100694.63;6098440;23;20019;-57
2022/11/07 04:30:17;;;;;;;14.52;3.30;;;;;;;11.11;100.00;100695.44;6097639;23;20093;-57
2022/11/07 04:32:49;;;;;;;9.10;3.03;;;;;;;11.07;100.00;100703.38;6098252;23;20105;-56
2022/11/07 04:35:18;;;;;;;11.60;3.20;;;;;;;11.09;100.00;100711.28;6098363;23;20018;-53
2022/11/07 04:37:46;;;;;;;8.98;2.83;;;;;;;11.11;100.00;100698.16;6098019;23;20033;-53
2022/11/07 04:40:14;;;;;;;9.07;2.97;;;;;;;11.09;100.00;100698.47;6096179;23;20089;-55
2022/11/07 04:42:42;;;;;;;12.90;3.40;;;;;;;11.08;100.00;100702.25;6098418;23;20022;-54
2022/11/07 04:45:11;;;;;;;9.93;2.85;;;;;;;11.09;100.00;100701.19;6096774;23;20019;-54
2022/11/07 04:47:39;;;;;;;7.72;2.50;;;;;;;11.07;100.00;100703.38;6096644;23;20388;-57
2022/11/07 04:50:10;;;;;;;9.35;2.75;;;;;;;11.06;100.00;100700.91;6097735;23;20083;-53
2022/11/07 04:52:38;;;;;;;14.23;3.08;;;;;;;11.09;100.00;100712.09;6096348;23;20018;-56
2022/11/07 04:55:07;;;;;;;8.57;2.53;;;;;;;11.08;100.00;100704.16;6097926;23;20073;-53
2022/11/07 04:57:34;;;;;;;9.68;3.28;;;;;;;11.13;100.00;100708.81;6072635;23;20026;-55
2022/11/07 05:00:03;;;;;;;5.80;2.25;;;;;;;11.17;100.00;100709.91;6097786;23;20444;-52
2022/11/07 05:02:31;;;;;;;7.80;2.58;;;;;;;11.17;100.00;100707.16;6095112;23;20057;-52
2022/11/07 05:04:58;;;;;;;10.50;2.72;;;;;;;11.18;100.00;100708.78;6095977;23;20447;-56
2022/11/07 05:07:27;;;;;;;8.98;2.90;;;;;;;11.12;100.00;100701.72;6097342;23;20474;-55
2022/11/07 05:09:54;;;;;;;10.27;2.90;;;;;;;11.08;100.00;100704.97;6097320;23;20092;-57
2022/11/07 05:12:22;;;;;;;8.13;2.60;;;;;;;11.11;100.00;100713.72;6097248;23;20435;-54
2022/11/07 05:14:50;;;;;;;12.77;3.20;;;;;;;11.11;100.00;100719.16;6097416;23;20317;-56
2022/11/07 05:17:17;;;;;;;10.05;2.95;;;;;;;11.08;100.00;100726.78;6097826;23;20023;-58
2022/11/07 05:19:46;;;;;;;13.40;3.47;;;;;;;11.09;100.00;100723.00;6097735;23;20022;-51
2022/11/07 05:25:00;;;;;;;13.00;3.38;;;;;;;11.15;100.00;100720.25;6097772;23;20022;-55
2022/11/07 05:27:27;;;;;;;9.73;2.97;;;;;;;11.15;100.00;100720.25;6097943;23;20022;-57
2022/11/07 05:29:55;;;;;;;9.70;3.00;;;;;;;11.17;100.00;100718.09;6097701;23;20023;-56
2022/11/07 05:32:22;;;;;;;9.75;2.83;;;;;;;11.19;100.00;100715.91;6097243;23;20018;-53
2022/11/07 05:34:50;;;;;;;7.50;2.38;;;;;;;11.45;100.00;100720.22;6097267;23;20018;-56
2022/11/07 05:37:17;;;;;;;7.93;2.75;;;;;;;11.44;100.00;100725.94;6095972;23;20086;-58
2022/11/07 05:39:45;;;;;;;16.77;3.75;;;;;;;11.36;100.00;100721.88;6097311;23;20022;-58
2022/11/07 05:42:18;;;;;;;6.80;2.47;;;;;;;11.39;100.00;100728.69;6095777;23;20046;-56
2022/11/07 05:44:46;;;;;;;10.55;3.13;;;;;;;11.51;100.00;100724.56;6096278;23;20391;-55
2022/11/07 05:47:13;;;;;;;5.10;2.25;;;;;;;11.64;100.00;100725.06;6096874;23;20023;-56
2022/11/07 05:49:41;;;;;;;10.90;3.15;;;;;;;11.54;100.00;100731.38;6096784;23;20041;-53
2022/11/07 05:52:09;;;;;;;8.48;2.70;;;;;;;11.55;100.00;100730.28;6095595;23;20022;-58
2022/11/07 05:54:36;;;;;;;11.98;2.63;;;;;;;11.50;100.00;100736.56;6096028;23;20022;-54
2022/11/07 05:57:04;;;;;;;7.47;2.80;;;;;;;11.46;100.00;100721.84;6097077;23;20022;-57
2022/11/07 05:59:31;;;;;;;10.90;2.75;;;;;;;11.73;100.00;100731.59;6095594;23;20034;-54
2022/11/07 06:01:59;;;;;;;5.85;2.30;;;;;;;11.60;100.00;100719.34;6093176;23;20053;-55
2022/11/07 06:04:27;;;;;;;9.45;2.75;;;;;;;11.60;100.00;100721.28;6092519;23;20026;-55
2022/11/07 06:06:54;;;;;;;11.00;3.10;;;;;;;11.59;100.00;100728.63;6092793;23;20037;-53
2022/11/07 06:09:22;;;;;;;12.40;3.28;;;;;;;11.56;100.00;100726.44;6092374;23;20097;-56
2022/11/07 06:11:50;;;;;;;11.57;3.38;;;;;;;11.59;100.00;100725.09;6093187;23;20077;-56
2022/11/07 06:14:17;;;;;;;13.63;3.53;;;;;;;11.48;100.00;100719.66;6093004;23;20027;-55
2022/11/07 06:16:45;;;;;;;9.57;2.95;;;;;;;11.50;100.00;100722.13;6092818;23;20034;-53
2022/11/07 06:19:12;;;;;;;10.15;3.03;;;;;;;11.52;100.00;100719.94;6092992;23;20467;-56
2022/11/07 06:21:40;;;;;;;8.65;3.08;;;;;;;11.65;100.00;100718.53;6093079;23;20030;-57
2022/11/07 06:24:09;;;;;;;7.47;2.33;;;;;;;11.83;100.00;100719.81;6093104;23;20022;-56
2022/11/07 06:26:42;;;;;;;9.02;2.70;;;;;;;11.75;100.00;100715.75;6092646;23;20027;-54
2022/11/07 06:29:09;;;;;;;10.40;2.80;;;;;;;11.79;100.00;100716.03;6092360;23;20053;-56
2022/11/07 06:31:37;;;;;;;8.93;2.80;;;;;;;11.85;100.00;100715.72;6093002;23;20125;-55
2022/11/07 06:34:04;;;;;;;7.63;2.40;;;;;;;11.79;100.00;100722.31;6092966;23;20014;-57
2022/11/07 06:36:32;;;;;;;10.40;3.00;;;;;;;11.78;100.00;100725.28;6091768;23;20085;-51
2022/11/07 06:38:59;;;;;;;5.32;2.20;;;;;;;11.93;100.00;100723.38;6092557;23;20047;-56
2022/11/07 06:41:27;;;;;;;8.77;2.38;;;;;;;12.12;100.00;100722.72;6091428;23;20046;-56
2022/11/07 06:43:55;;;;;;;10.20;3.50;;;;;;;12.08;100.00;100732.59;6091252;23;20077;-56
2022/11/07 06:46:24;;;;;;;9.30;2.78;;;;;;;12.02;100.00;100747.34;6092086;23;20526;-58
2022/11/07 06:48:51;;;;;;;5.40;2.25;;;;;;;11.90;100.00;100737.56;6092723;23;20026;-57
2022/11/07 06:51:19;;;;;;;9.27;2.45;;;;;;;11.93;100.00;100733.47;6093060;23;20455;-57
2022/11/07 06:53:46;;;;;;;10.48;3.08;;;;;;;12.19;100.00;100739.63;6092133;23;20030;-54
2022/11/07 06:56:15;;;;;;;11.13;2.90;;;;;;;12.22;100.00;100733.63;6092719;23;20045;-54
2022/11/07 06:58:42;;;;;;;6.03;2.53;;;;;;;12.38;100.00;100731.59;6091117;23;20027;-56
2022/11/07 07:01:14;;;;;;;6.78;2.35;;;;;;;12.35;100.00;100738.44;6092439;23;20663;-53
2022/11/07 07:03:42;;;;;;;14.82;4.00;;;;;;;12.15;100.00;100746.75;6094870;23;20018;-57
2022/11/07 07:06:13;;;;;;;14.80;4.05;;;;;;;11.79;100.00;100741.41;6093272;23;20030;-56
2022/11/07 07:08:41;;;;;;;14.23;3.38;;;;;;;11.57;100.00;100749.94;6096242;23;20077;-55
2022/11/07 07:11:11;;;;;;;15.65;4.45;;;;;;;11.46;100.00;100757.31;6096196;23;20024;-56
2022/11/07 07:13:39;;;;;;;17.27;3.38;;;;;;;11.43;100.00;100765.25;6096984;23;20022;-52
2022/11/07 07:16:07;;;;;;;14.65;3.00;;;;;;;11.43;100.00;100759.78;6094982;23;20019;-51
2022/11/07 07:18:35;;;;;;;11.43;3.00;;;;;;;11.45;100.00;100760.34;6096593;23;20026;-56
2022/11/07 07:21:07;;;;;;;13.27;3.53;;;;;;;11.48;100.00;100757.03;6093057;23;20063;-56
2022/11/07 07:23:37;;;;;;;16.65;4.40;;;;;;;11.49;100.00;100775.84;6096413;23;20074;-54
2022/11/07 07:26:07;;;;;;;12.55;3.25;;;;;;;11.48;100.00;100779.69;6094946;23;20026;-55
2022/11/07 07:28:36;;;;;;;15.93;3.60;;;;;;;11.51;100.00;100787.31;6095554;23;20490;-57
2022/11/07 07:31:14;;;;;;;19.42;4.40;;;;;;;11.81;100.00;100779.31;6095912;23;20045;-51
2022/11/07 07:33:42;;;;;;;14.45;4.10;;;;;;;11.70;100.00;100781.28;6096841;23;20023;-54
2022/11/07 07:36:11;;;;;;;15.90;4.95;;;;;;;11.87;100.00;100791.91;6096228;23;20019;-57
2022/11/07 07:38:46;;;;;;;15.83;3.97;;;;;;;11.84;100.00;100793.25;6072986;23;20407;-56
2022/11/07 07:41:13;;;;;;;14.30;3.97;;;;;;;11.75;100.00;100789.47;6094702;23;20250;-54
2022/11/07 07:43:41;;;;;;;18.63;4.80;;;;;;;11.85;100.00;100794.88;6097445;23;20014;-53
2022/11/07 07:46:13;;;;;;;17.35;4.85;;;;;;;11.82;100.00;100792.72;6097638;23;20097;-54
2022/11/07 07:48:40;;;;;;;19.23;4.57;;;;;;;11.76;100.00;100802.03;6098719;23;20019;-55
2022/11/07 07:51:08;;;;;;;15.75;4.93;;;;;;;11.77;100.00;100790.00;6096723;23;20022;-53
2022/11/07 07:53:35;;;;;;;11.65;3.42;;;;;;;11.75;100.00;100788.66;6097976;23;20030;-56
2022/11/07 07:56:05;;;;;;;16.58;4.55;;;;;;;11.70;100.00;100792.19;6097836;23;20026;-54
2022/11/07 07:58:33;;;;;;;17.20;3.88;;;;;;;11.68;100.00;100799.84;6098364;23;20134;-54
2022/11/07 08:01:00;;;;;;;16.85;4.10;;;;;;;11.73;100.00;100791.63;6099234;23;20447;-55
2022/11/07 08:03:28;;;;;;;18.02;4.78;;;;;;;11.83;100.00;100794.34;6098590;23;20029;-56
2022/11/07 08:06:16;;;;;;;14.57;3.90;;;;;;;11.99;100.00;100799.81;6098420;23;20471;-55
2022/11/07 08:08:43;;;;;;;19.02;5.63;;;;;;;12.28;100.00;100792.56;6098307;23;20022;-55
2022/11/07 08:11:11;;;;;;;25.92;6.53;;;;;;;12.51;100.00;100802.03;6097876;23;20347;-52
2022/11/07 08:13:39;;;;;;;17.73;5.10;;;;;;;12.49;100.00;100809.69;6097965;23;20026;-55
2022/11/07 08:16:07;;;;;;;18.02;5.13;;;;;;;12.51;100.00;100814.91;6098279;23;20022;-51
2022/11/07 08:18:35;;;;;;;14.02;4.13;;;;;;;12.46;100.00;100810.28;6098495;23;20049;-52
2022/11/07 08:21:03;;;;;;;17.10;5.65;;;;;;;12.66;100.00;100814.00;6096766;23;20479;-53
2022/11/07 08:23:30;;;;;;;15.25;4.47;;;;;;;12.59;100.00;100814.28;6098314;23;20023;-50
2022/11/07 08:26:01;;;;;;;15.05;3.97;;;;;;;12.61;100.00;100816.75;6096915;23;20023;-51
2022/11/07 08:28:30;;;;;;;15.38;4.43;;;;;;;12.84;100.00;100817.97;6098412;23;20043;-50
2022/11/07 08:31:01;;;;;;;16.05;4.32;;;;;;;12.61;100.00;100816.75;6098489;23;20081;-54
2022/11/07 08:33:29;;;;;;;11.55;4.10;;;;;;;12.34;100.00;100821.53;6096506;23;20029;-57
2022/11/07 08:36:01;;;;;;;14.68;4.45;;;;;;;12.45;100.00;100818.75;6097762;23;20019;-55
2022/11/07 08:38:30;;;;;;;14.50;4.22;;;;;;;12.47;100.00;100822.00;6096475;23;20397;-50
2022/11/07 08:40:58;;;;;;;17.33;4.43;;;;;;;12.56;100.00;100828.53;6097516;23;20029;-50
2022/11/07 08:43:26;;;;;;;13.00;4.38;;;;;;;12.77;100.00;100827.31;6098031;23;20026;-52
2022/11/07 08:45:54;;;;;;;13.07;4.03;;;;;;;13.01;100.00;100826.59;6097661;23;20447;-50
2022/11/07 08:48:22;;;;;;;17.55;4.32;;;;;;;13.07;100.00;100836.41;6097557;23;20088;-50
2022/11/07 08:50:55;;;;;;;11.63;3.72;;;;;;;12.97;100.00;100833.75;6097950;23;20018;-52
2022/11/07 08:53:24;;;;;;;10.93;3.97;;;;;;;12.87;100.00;100836.53;6097713;23;20026;-53
2022/11/07 08:55:58;;;;;;;14.98;3.55;;;;;;;12.67;100.00;100846.50;6095960;23;20018;-52
2022/11/07 08:58:26;;;;;;;13.70;3.60;;;;;;;12.61;100.00;100836.69;6096482;23;20026;-54
2022/11/07 09:00:56;;;;;;;13.77;4.25;;;;;;;12.54;100.00;100858.06;6097851;23;20023;-56
2022/11/07 09:03:25;;;;;;;10.90;3.35;;;;;;;12.57;100.00;100849.28;6097457;23;20097;-56
2022/11/07 09:06:12;;;;;;;15.80;4.35;;;;;;;12.53;100.00;100859.13;6097004;23;20019;-56
2022/11/07 09:08:40;;;;;;;12.57;3.78;;;;;;;12.68;100.00;100861.81;6097586;23;20018;-55
2022/11/07 09:11:07;;;;;;;13.15;3.58;;;;;;;12.62;100.00;100865.66;6095715;23;20025;-55
2022/11/07 09:13:35;;;;;;;13.50;3.72;;;;;;;12.69;100.00;100868.09;6095845;23;20459;-57
2022/11/07 09:16:04;;;;;;;15.50;4.20;;;;;;;12.60;100.00;100880.72;6096952;23;20025;-55
2022/11/07 09:18:32;;;;;;;11.38;3.40;;;;;;;12.57;100.00;100862.94;6097344;23;20037;-55
2022/11/07 09:21:00;;;;;;;13.77;3.88;;;;;;;12.79;100.00;100862.56;6097068;23;20440;-55
2022/11/07 09:23:29;;;;;;;12.07;3.42;;;;;;;12.68;100.00;100875.47;6072838;23;20025;-57
2022/11/07 09:26:00;;;;;;;14.93;3.65;;;;;;;12.51;100.00;100877.75;6097075;23;20022;-54
2022/11/07 09:28:28;;;;;;;12.93;3.40;;;;;;;12.50;100.00;100870.63;6097699;23;20023;-54
2022/11/07 09:30:57;;;;;;;11.18;3.38;;;;;;;12.81;100.00;100878.69;6098086;23;20032;-56
2022/11/07 09:33:25;;;;;;;11.60;3.75;;;;;;;12.71;100.00;100872.19;6097790;23;20397;-57
2022/11/07 09:35:54;;;;;;;14.02;4.07;;;;;;;12.66;100.00;100872.22;6096283;23;20029;-57
2022/11/07 09:38:21;;;;;;;12.65;3.80;;;;;;;12.78;100.00;100883.63;6096442;23;20018;-57
2022/11/07 09:41:17;;;;;;;8.98;3.58;;;;;;;12.77;100.00;100882.00;6097633;23;20026;-54
2022/11/07 09:43:59;;;;;;;7.03;2.47;;;;;;;13.05;100.00;100887.03;6096350;23;20022;-51
2022/11/07 09:46:37;;;;;;;15.70;3.50;;;;;;;13.06;100.00;100884.03;6097173;23;20030;-57
2022/11/07 09:49:26;;;;;;;11.88;3.72;;;;;;;12.85;100.00;100894.25;6096623;23;20026;-53
2022/11/07 09:52:16;;;;;;;13.95;3.80;;;;;;;12.97;100.00;100896.66;6098448;23;20023;-56
2022/11/07 09:54:51;;;;;;;13.82;3.55;;;;;;;12.86;100.00;100906.00;6096885;23;20030;-56
2022/11/07 09:57:19;;;;;;;12.85;3.58;;;;;;;12.77;100.00;100903.88;6096315;23;20018;-56
2022/11/07 09:59:59;;;;;;;9.93;3.40;;;;;;;12.76;100.00;100899.50;6096181;23;20021;-57
2022/11/07 10:02:30;;;;;;;12.93;3.58;;;;;;;12.71;100.00;100899.53;6095685;23;20324;-56
2022/11/07 10:05:00;;;;;;;13.32;3.40;;;;;;;12.72;100.00;100903.06;6071810;23;20018;-58
2022/11/07 10:07:41;;;;;;;9.27;3.40;;;;;;;12.71;100.00;100902.25;6095804;23;20029;-56
2022/11/07 10:10:47;;;;;;;14.60;3.95;;;;;;;12.71;100.00;100899.53;6096787;23;20014;-54
2022/11/07 10:13:46;;;;;;;8.18;2.65;;;;;;;12.82;100.00;100902.19;6097153;23;20018;-56
2022/11/07 10:16:46;;;;;;;11.07;3.13;;;;;;;12.81;100.00;100903.31;6097268;23;20030;-56
2022/11/07 10:19:39;;;;;;;11.02;3.28;;;;;;;12.95;100.00;100891.47;6097115;23;20455;-53
2022/11/07 10:22:10;;;;;;;9.73;3.13;;;;;;;13.10;100.00;100893.28;6097240;23;20030;-56
2022/11/07 10:24:38;;;;;;;10.45;3.42;;;;;;;13.01;100.00;100908.66;6096851;23;20025;-55
2022/11/07 10:27:10;;;;;;;10.85;3.25;;;;;;;12.93;100.00;100917.47;6096729;23;20050;-54
2022/11/07 10:29:46;;;;;;;13.95;3.92;;;;;;;13.09;100.00;100910.81;6096981;23;20022;-58
2022/11/07 10:32:14;;;;;;;10.70;3.05;;;;;;;13.11;100.00;100914.09;6095804;23;20034;-57
2022/11/07 10:34:52;;;;;;;14.23;3.40;;;;;;;13.08;100.00;100908.34;6096674;23;20022;-51
2022/11/07 10:37:21;;;;;;;17.85;3.88;;;;;;;13.03;100.00;100913.84;6096847;23;20029;-57
2022/11/07 10:39:49;;;;;;;16.98;3.70;;;;;;;12.93;100.00;100918.28;6095388;23;20044;-56
2022/11/07 10:42:20;;;;;;;10.60;3.42;;;;;;;13.02;100.00;100921.25;6097174;23;20030;-56
2022/11/07 10:44:48;;;;;;;8.85;3.22;;;;;;;13.11;100.00;100919.56;6096090;23;20026;-55
2022/11/07 10:47:22;;;;;;;10.48;3.35;;;;;;;13.14;100.00;100918.19;6097092;23;20076;-56
2022/11/07 10:49:57;;;;;;;12.55;3.35;;;;;;;13.13;100.00;100922.00;6097631;23;20044;-55
2022/11/07 10:52:26;;;;;;;11.75;3.28;;;;;;;13.04;100.00;100935.47;6072321;23;20452;-56
2022/11/07 10:55:10;;;;;;;13.25;3.47;;;;;;;12.98;100.00;100925.63;6096203;23;20019;-55
2022/11/07 10:57:37;;;;;;;11.27;3.55;;;;;;;13.06;100.00;100927.81;6095685;23;20027;-56
2022/11/07 11:00:20;;;;;;;9.90;3.22;;;;;;;13.22;100.00;100926.59;6095471;23;20026;-56
2022/11/07 11:02:48;;;;;;;12.15;3.80;;;;;;;13.16;100.00;100929.66;6096540;23;20026;-54
2022/11/07 11:05:21;;;;;;;9.18;3.30;;;;;;;13.33;100.00;100921.09;6094958;23;20392;-57
2022/11/07 11:07:49;;;;;;;11.80;3.55;;;;;;;13.18;100.00;100920.06;6096902;23;20026;-58
2022/11/07 11:10:20;;;;;;;9.02;3.25;;;;;;;13.13;100.00;100922.00;6096436;23;20030;-53
2022/11/07 11:12:48;;;;;;;9.57;2.88;;;;;;;13.15;100.00;100920.59;6097341;23;20073;-53
2022/11/07 11:15:19;;;;;;;11.68;3.78;;;;;;;13.30;100.00;100916.19;6096681;23;20049;-55
2022/11/07 11:18:16;;;;;;;10.40;2.92;;;;;;;13.22;100.00;100914.84;6097381;23;20351;-52
2022/11/07 11:20:55;;;;;;;11.73;3.50;;;;;;;13.47;100.00;100927.56;6080919;23;20105;-53
2022/11/07 11:23:24;;;;;;;12.32;4.00;;;;;;;13.50;100.00;100927.00;6097702;23;20093;-55
2022/11/07 11:25:59;;;;;;;8.20;2.80;;;;;;;13.48;100.00;100914.69;6097109;23;20022;-56
2022/11/07 11:28:32;;;;;;;10.25;3.13;;;;;;;13.40;100.00;100916.13;6097601;23;20085;-57
2022/11/07 11:31:25;;;;;;;10.93;3.30;;;;;;;13.46;100.00;100909.50;6097192;23;20320;-56
2022/11/07 11:34:04;;;;;;;12.25;3.40;;;;;;;13.50;100.00;100907.03;6098276;23;20384;-55
2022/11/07 11:37:14;;;;;;;7.95;3.13;;;;;;;13.47;100.00;100902.94;6098472;23;20027;-55
2022/11/07 11:40:07;;;;;;;7.40;2.70;;;;;;;13.60;100.00;100902.28;6086827;23;20081;-56
2022/11/07 11:42:49;;;;;;;10.32;3.60;;;;;;;13.58;100.00;100901.72;6088515;23;20026;-55